LSZS/SMV METAR and TAF weather

Enter ICAO airport designator
Station Type Date Time Source
LSZS METAR 2019/06/27 04:20 UTC NOAA

LSZS 270420Z AUTO VRB01KT CAVOK 07/05 Q1034


Station Type Date Time Source
LSZS Decoded METAR 2019/06/27 04:20 UTC NOAA

Station name not available
Jun 27, 2019 - 12:20 AM EDT / 2019.06.27 0420 UTC
Wind: Variable at 1 MPH (1 KT):0
Visibility: greater than 7 mile(s):0
Temperature: 44 F (7 C)
Dew Point: 41 F (5 C)
Relative Humidity: 87%
Pressure (altimeter): 30.53 in. Hg (1034 hPa)
ob: LSZS 270420Z AUTO VRB01KT CAVOK 07/05 Q1034
cycle: 4

Station Type Date Time Source
LSZS TAF 2014/12/22 20:03 UTC NOAA

TAF
AMD LSZS 222054Z 2220/2224 CNL

Example: see airport list